createdAt,value
2018-05-04T00:00:17.330Z,10.30
2018-05-04T00:02:44.941Z,10.20
2018-05-04T00:05:12.565Z,10.30
2018-05-04T00:07:40.251Z,10.20
2018-05-04T00:10:07.888Z,10.20
2018-05-04T00:12:35.471Z,10.20
2018-05-04T00:15:03.083Z,10.20
2018-05-04T00:17:30.723Z,10.20
2018-05-04T00:19:59.100Z,10.10
2018-05-04T00:22:27.480Z,10.10
2018-05-04T00:24:55.885Z,10.10
2018-05-04T00:27:24.275Z,10.00
2018-05-04T00:29:51.913Z,10.00
2018-05-04T00:32:20.324Z,10.00
2018-05-04T00:34:47.953Z,10.00
2018-05-04T00:37:15.577Z,10.00
2018-05-04T00:39:43.180Z,9.90
2018-05-04T00:42:10.777Z,9.90
2018-05-04T00:44:38.385Z,9.90
2018-05-04T00:47:22.519Z,9.80
2018-05-04T00:49:50.847Z,9.80
2018-05-04T00:52:18.411Z,9.80
2018-05-04T00:54:46.048Z,9.80
2018-05-04T00:57:13.652Z,9.80
2018-05-04T00:59:42.776Z,9.70
2018-05-04T01:02:11.115Z,9.70
2018-05-04T01:04:38.717Z,9.70
2018-05-04T01:07:07.068Z,9.70
2018-05-04T01:09:34.743Z,9.60
2018-05-04T01:12:03.123Z,9.60
2018-05-04T01:14:31.478Z,9.60
2018-05-04T01:16:59.162Z,9.50
2018-05-04T01:19:27.511Z,9.50
2018-05-04T01:21:55.260Z,9.50
2018-05-04T01:24:22.858Z,9.50
2018-05-04T01:26:51.324Z,9.50
2018-05-04T01:29:19.768Z,9.50
2018-05-04T01:31:47.401Z,9.50
2018-05-04T01:34:15.020Z,9.50
2018-05-04T01:36:42.677Z,9.40
2018-05-04T01:39:10.302Z,9.40
2018-05-04T01:41:37.877Z,9.40
2018-05-04T01:44:05.455Z,9.40
2018-05-04T01:46:33.097Z,9.40
2018-05-04T01:49:00.720Z,9.40
2018-05-04T01:51:28.370Z,9.30
2018-05-04T01:53:56.720Z,9.30
2018-05-04T01:56:24.372Z,9.30
2018-05-04T01:58:52.058Z,9.30
2018-05-04T02:01:19.646Z,9.20
2018-05-04T02:03:47.304Z,9.20
2018-05-04T02:06:14.871Z,9.20
2018-05-04T02:08:42.484Z,9.20
2018-05-04T02:11:10.138Z,9.20
2018-05-04T02:13:37.758Z,9.10
2018-05-04T02:16:05.364Z,9.10
2018-05-04T02:18:32.992Z,9.10
2018-05-04T02:21:00.656Z,9.10
2018-05-04T02:23:28.256Z,9.10
2018-05-04T02:25:56.658Z,9.00
2018-05-04T02:28:24.248Z,9.00
2018-05-04T02:30:51.859Z,9.00
2018-05-04T02:33:20.261Z,9.00
2018-05-04T02:35:47.877Z,8.90
2018-05-04T02:38:15.534Z,8.90
2018-05-04T02:40:43.113Z,8.90
2018-05-04T02:43:10.789Z,8.90
2018-05-04T02:45:39.300Z,8.90
2018-05-04T02:48:07.050Z,8.80
2018-05-04T02:50:34.704Z,8.80
2018-05-04T02:53:03.080Z,8.80
2018-05-04T02:55:30.727Z,8.80
2018-05-04T02:57:59.078Z,8.80
2018-05-04T03:00:26.714Z,8.70
2018-05-04T03:02:54.348Z,8.70
2018-05-04T03:05:22.031Z,8.70
2018-05-04T03:07:49.688Z,8.60
2018-05-04T03:10:17.394Z,8.60
2018-05-04T03:12:45.028Z,8.60
2018-05-04T03:15:12.601Z,8.60
2018-05-04T03:17:40.208Z,8.60
2018-05-04T03:20:08.752Z,8.60
2018-05-04T03:22:36.480Z,8.50
2018-05-04T03:25:04.086Z,8.50
2018-05-04T03:27:32.488Z,8.40
2018-05-04T03:30:00.100Z,8.30
2018-05-04T03:32:29.339Z,8.20
2018-05-04T03:34:57.717Z,8.20
2018-05-04T03:37:26.125Z,8.20
2018-05-04T03:39:53.865Z,8.10
2018-05-04T03:42:21.701Z,8.10
2018-05-04T03:44:50.125Z,8.10
2018-05-04T03:47:17.752Z,8.10
2018-05-04T03:49:46.110Z,8.10
2018-05-04T03:52:13.773Z,8.10
2018-05-04T03:54:42.132Z,8.10
2018-05-04T03:57:21.628Z,8.00
2018-05-04T04:00:00.984Z,8.10
2018-05-04T04:02:40.503Z,8.00
2018-05-04T04:05:08.083Z,8.00
2018-05-04T04:07:35.698Z,8.00
2018-05-04T04:10:04.051Z,7.90
2018-05-04T04:12:31.630Z,7.90
2018-05-04T04:15:00.018Z,7.90
2018-05-04T04:17:28.384Z,7.90
2018-05-04T04:19:56.763Z,7.90
2018-05-04T04:22:25.106Z,8.00
2018-05-04T04:24:52.781Z,8.00
2018-05-04T04:27:20.384Z,8.00
2018-05-04T04:29:48.624Z,8.00
2018-05-04T04:32:17.091Z,8.00
2018-05-04T04:34:44.699Z,8.10
2018-05-04T04:37:12.301Z,8.10
2018-05-04T04:39:39.874Z,8.10
2018-05-04T04:42:07.489Z,8.10
2018-05-04T04:44:35.122Z,8.20
2018-05-04T04:47:04.105Z,8.20
2018-05-04T04:49:32.451Z,8.30
2018-05-04T04:52:00.020Z,8.30
2018-05-04T04:54:27.650Z,8.30
2018-05-04T04:56:55.237Z,8.40
2018-05-04T04:59:22.809Z,8.50
2018-05-04T05:01:50.457Z,8.50
2018-05-04T05:04:18.061Z,8.60
2018-05-04T05:06:46.280Z,8.60
2018-05-04T05:09:13.857Z,8.70
2018-05-04T05:11:41.610Z,8.80
2018-05-04T05:14:09.232Z,8.80
2018-05-04T05:16:36.893Z,8.90
2018-05-04T05:19:04.535Z,9.00
2018-05-04T05:21:32.125Z,9.10
2018-05-04T05:24:00.505Z,9.20
2018-05-04T05:26:28.732Z,9.30
2018-05-04T05:28:57.115Z,9.50
2018-05-04T05:31:25.538Z,9.60
2018-05-04T05:33:53.202Z,9.50
2018-05-04T05:36:20.995Z,9.70
2018-05-04T05:38:48.605Z,9.80
2018-05-04T05:41:16.225Z,10.00
2018-05-04T05:43:45.185Z,10.20
2018-05-04T05:46:12.797Z,10.30
2018-05-04T05:48:41.189Z,10.30
2018-05-04T05:51:09.592Z,10.30
2018-05-04T05:53:37.209Z,10.30
2018-05-04T05:56:05.743Z,10.40
2018-05-04T05:58:33.353Z,10.40
2018-05-04T06:01:01.761Z,10.80
2018-05-04T06:03:29.622Z,10.80
2018-05-04T06:05:57.262Z,10.90
2018-05-04T06:08:24.864Z,11.00
2018-05-04T06:10:52.651Z,11.20
2018-05-04T06:13:20.261Z,11.30
2018-05-04T06:15:47.878Z,11.40
2018-05-04T06:18:15.526Z,11.50
2018-05-04T06:20:43.136Z,11.80
2018-05-04T06:23:10.938Z,11.90
2018-05-04T06:25:38.570Z,12.00
2018-05-04T06:28:06.247Z,12.00
2018-05-04T06:30:33.900Z,12.20
2018-05-04T06:33:01.517Z,12.30
2018-05-04T06:35:29.911Z,12.40
2018-05-04T06:37:57.523Z,12.40
2018-05-04T06:40:25.150Z,12.50
2018-05-04T06:42:52.743Z,12.60
2018-05-04T06:45:21.287Z,12.70
2018-05-04T06:47:48.923Z,12.70
2018-05-04T06:50:17.318Z,13.00
2018-05-04T06:52:45.987Z,13.00
2018-05-04T06:55:14.777Z,13.30
2018-05-04T06:57:42.397Z,13.30
2018-05-04T07:00:10.003Z,13.50
2018-05-04T07:02:38.405Z,13.70
2018-05-04T07:05:06.020Z,13.60
2018-05-04T07:07:34.403Z,13.80
2018-05-04T07:10:02.786Z,13.70
2018-05-04T07:12:30.460Z,13.60
2018-05-04T07:14:58.190Z,13.90
2018-05-04T07:17:26.397Z,13.90
2018-05-04T07:19:53.990Z,14.00
2018-05-04T07:22:21.628Z,14.00
2018-05-04T07:24:49.214Z,14.20
2018-05-04T07:29:49.200Z,14.20
2018-05-04T07:32:17.554Z,14.70
2018-05-04T07:34:45.818Z,14.60
2018-05-04T07:37:13.427Z,14.80
2018-05-04T07:39:41.763Z,14.90
2018-05-04T07:42:09.423Z,14.90
2018-05-04T07:44:37.005Z,15.00
2018-05-04T07:47:05.393Z,15.10
2018-05-04T07:49:33.040Z,15.10
2018-05-04T07:52:01.433Z,15.10
2018-05-04T07:54:29.305Z,15.10
2018-05-04T07:56:56.899Z,15.40
2018-05-04T07:59:25.242Z,15.50
2018-05-04T08:01:53.693Z,15.60
2018-05-04T08:04:22.127Z,15.50
2018-05-04T08:06:49.740Z,15.50
2018-05-04T08:09:23.648Z,15.60
2018-05-04T08:11:52.639Z,15.20
2018-05-04T08:14:21.048Z,15.10
2018-05-04T08:16:48.659Z,15.10
2018-05-04T08:19:16.386Z,15.30
2018-05-04T08:21:44.001Z,15.10
2018-05-04T08:24:12.388Z,15.00
2018-05-04T08:26:40.808Z,15.30
2018-05-04T08:29:08.397Z,15.20
2018-05-04T08:31:36.025Z,15.30
2018-05-04T08:34:03.640Z,15.50
2018-05-04T08:36:32.237Z,15.50
2018-05-04T08:38:59.887Z,15.50
2018-05-04T08:41:28.240Z,15.70
2018-05-04T08:43:56.642Z,16.00
2018-05-04T08:46:25.039Z,16.20
2018-05-04T08:48:53.437Z,16.20
2018-05-04T08:51:21.736Z,16.20
2018-05-04T08:53:50.319Z,16.00
2018-05-04T08:56:17.927Z,15.90
2018-05-04T08:58:45.512Z,15.90
2018-05-04T09:01:13.125Z,16.00
2018-05-04T09:03:41.536Z,16.20
2018-05-04T09:06:09.120Z,16.20
2018-05-04T09:08:36.756Z,16.10
2018-05-04T09:11:04.384Z,16.00
2018-05-04T09:13:32.825Z,16.10
2018-05-04T09:16:00.454Z,16.00
2018-05-04T09:18:28.468Z,16.10
2018-05-04T09:20:56.133Z,16.20
2018-05-04T09:23:23.776Z,16.40
2018-05-04T09:25:51.430Z,16.30
2018-05-04T09:28:19.068Z,16.10
2018-05-04T09:30:46.769Z,16.20
2018-05-04T09:33:14.365Z,16.30
2018-05-04T09:35:42.786Z,16.60
2018-05-04T09:38:10.406Z,16.60
2018-05-04T09:40:38.756Z,16.80
2018-05-04T09:43:07.124Z,16.80
2018-05-04T09:45:34.768Z,16.80
2018-05-04T09:48:02.346Z,16.80
2018-05-04T09:50:30.026Z,16.90
2018-05-04T09:52:58.407Z,17.00
2018-05-04T09:55:26.835Z,16.70
2018-05-04T09:57:54.432Z,16.70
2018-05-04T10:00:22.093Z,16.90
2018-05-04T10:02:49.764Z,17.10
2018-05-04T10:05:18.233Z,17.10
2018-05-04T10:07:45.873Z,17.00
2018-05-04T10:10:13.508Z,17.10
2018-05-04T10:12:41.165Z,17.20
2018-05-04T10:15:08.763Z,17.30
2018-05-04T10:17:36.371Z,17.20
2018-05-04T10:20:04.716Z,16.90
2018-05-04T10:22:32.364Z,16.90
2018-05-04T10:25:00.018Z,16.90
2018-05-04T10:27:27.669Z,16.90
2018-05-04T10:29:55.290Z,17.00
2018-05-04T10:32:22.871Z,16.90
2018-05-04T10:34:50.479Z,16.60
2018-05-04T10:37:18.140Z,16.50
2018-05-04T10:39:45.888Z,16.70
2018-05-04T10:42:13.489Z,16.70
2018-05-04T10:44:41.145Z,16.70
2018-05-04T10:47:09.498Z,16.90
2018-05-04T10:49:37.093Z,16.90
2018-05-04T10:52:04.701Z,17.00
2018-05-04T10:54:32.337Z,17.10
2018-05-04T10:56:59.981Z,17.10
2018-05-04T10:59:27.693Z,17.20
2018-05-04T11:01:55.289Z,17.40
2018-05-04T11:04:23.692Z,17.40
2018-05-04T11:06:51.308Z,17.40
2018-05-04T11:09:19.679Z,17.30
2018-05-04T11:11:47.531Z,17.30
2018-05-04T11:14:15.099Z,17.10
2018-05-04T11:16:42.689Z,17.00
2018-05-04T11:19:11.115Z,16.90
2018-05-04T11:21:38.704Z,16.80
2018-05-04T11:24:07.686Z,17.00
2018-05-04T11:26:35.368Z,17.10
2018-05-04T11:29:03.908Z,17.30
2018-05-04T11:31:31.540Z,17.30
2018-05-04T11:33:59.176Z,17.40
2018-05-04T11:36:27.685Z,17.50
2018-05-04T11:38:55.395Z,17.60
2018-05-04T11:41:23.065Z,17.70
2018-05-04T11:43:50.676Z,17.60
2018-05-04T11:46:18.332Z,17.50
2018-05-04T11:48:46.368Z,17.60
2018-05-04T11:51:14.757Z,17.70
2018-05-04T11:53:44.331Z,17.50
2018-05-04T11:56:18.386Z,17.50
2018-05-04T11:58:48.408Z,17.60
2018-05-04T12:01:16.030Z,17.80
2018-05-04T12:03:44.452Z,18.00
2018-05-04T12:06:12.048Z,18.00
2018-05-04T12:08:39.711Z,18.10
2018-05-04T12:11:07.675Z,18.30
2018-05-04T12:13:35.335Z,18.40
2018-05-04T12:16:04.662Z,19.00
2018-05-04T12:18:33.036Z,19.80
2018-05-04T12:21:02.217Z,20.40
2018-05-04T12:23:29.847Z,20.40
2018-05-04T12:25:57.679Z,21.00
2018-05-04T12:28:25.338Z,21.90
2018-05-04T12:30:53.046Z,23.00
2018-05-04T12:33:20.718Z,23.50
2018-05-04T12:35:48.368Z,23.10
2018-05-04T12:38:16.067Z,22.90
2018-05-04T12:40:43.748Z,24.50
2018-05-04T12:43:11.852Z,25.80
2018-05-04T12:45:39.476Z,27.10
2018-05-04T12:48:07.821Z,27.90
2018-05-04T12:50:35.532Z,27.90
2018-05-04T12:53:03.112Z,27.10
2018-05-04T12:55:30.703Z,27.40
2018-05-04T12:57:58.316Z,27.90
2018-05-04T13:00:25.932Z,28.80
2018-05-04T13:02:53.557Z,29.20
2018-05-04T13:05:21.253Z,30.10
2018-05-04T13:07:49.631Z,31.00
2018-05-04T13:10:17.254Z,31.00
2018-05-04T13:12:44.916Z,31.30
2018-05-04T13:15:12.586Z,31.20
2018-05-04T13:17:40.337Z,31.00
2018-05-04T13:20:07.996Z,31.00
2018-05-04T13:22:35.576Z,30.80
2018-05-04T13:25:03.188Z,31.40
2018-05-04T13:27:30.820Z,31.30
2018-05-04T13:29:59.211Z,31.40
2018-05-04T13:32:27.591Z,32.10
2018-05-04T13:34:56.003Z,33.10
2018-05-04T13:37:25.434Z,33.60
2018-05-04T13:39:53.071Z,33.50
2018-05-04T13:42:20.700Z,34.50
2018-05-04T13:44:49.071Z,34.60
2018-05-04T13:47:17.458Z,33.10
2018-05-04T13:49:46.341Z,31.50
2018-05-04T13:52:14.693Z,31.70
2018-05-04T13:54:43.121Z,32.60
2018-05-04T13:59:44.814Z,33.30
2018-05-04T14:02:12.579Z,32.80
2018-05-04T14:04:40.228Z,33.20
2018-05-04T14:07:07.886Z,32.80
2018-05-04T14:09:35.472Z,32.90
2018-05-04T14:12:03.843Z,33.10
2018-05-04T14:14:31.492Z,33.00
2018-05-04T14:16:59.137Z,32.00
2018-05-04T14:19:26.790Z,32.50
2018-05-04T14:21:54.421Z,34.30
2018-05-04T14:24:22.771Z,34.40
2018-05-04T14:26:50.411Z,34.30
2018-05-04T14:29:18.015Z,34.10
2018-05-04T14:31:46.491Z,32.50
2018-05-04T14:34:14.106Z,32.50
2018-05-04T14:36:41.763Z,32.30
2018-05-04T14:39:09.377Z,31.10
2018-05-04T14:41:37.816Z,30.80
2018-05-04T14:44:05.572Z,30.80
2018-05-04T14:46:33.237Z,30.30
2018-05-04T14:49:00.815Z,30.50
2018-05-04T14:51:29.106Z,31.80
2018-05-04T14:53:56.680Z,32.20
2018-05-04T14:56:25.024Z,33.50
2018-05-04T14:58:52.628Z,33.60
2018-05-04T15:01:21.013Z,32.30
2018-05-04T15:03:49.197Z,32.20
2018-05-04T15:06:16.863Z,31.10
2018-05-04T15:08:44.514Z,32.50
2018-05-04T15:11:12.124Z,33.10
2018-05-04T15:13:39.732Z,32.90
2018-05-04T15:16:07.351Z,33.10
2018-05-04T15:18:36.522Z,33.50
2018-05-04T15:21:04.159Z,33.50
2018-05-04T15:23:31.798Z,34.30
2018-05-04T15:26:00.225Z,34.10
2018-05-04T15:28:28.677Z,34.60
2018-05-04T15:30:56.292Z,34.60
2018-05-04T15:33:25.038Z,35.40
2018-05-04T15:35:52.669Z,35.30
2018-05-04T15:38:20.297Z,34.90
2018-05-04T15:40:49.424Z,35.30
2018-05-04T15:43:17.142Z,35.30
2018-05-04T15:45:44.776Z,36.40
2018-05-04T15:48:18.071Z,36.80
2018-05-04T15:50:51.538Z,36.20
2018-05-04T15:53:20.735Z,35.00
2018-05-04T15:55:49.146Z,34.00
2018-05-04T15:58:16.768Z,33.90
2018-05-04T16:00:45.194Z,34.30
2018-05-04T16:03:13.472Z,34.20
2018-05-04T16:05:41.101Z,33.80
2018-05-04T16:08:08.889Z,33.40
2018-05-04T16:10:36.548Z,33.40
2018-05-04T16:13:04.144Z,32.20
2018-05-04T16:15:32.504Z,28.30
2018-05-04T16:18:01.415Z,28.20
2018-05-04T16:20:29.779Z,25.30
2018-05-04T16:22:58.908Z,24.40
2018-05-04T16:25:27.261Z,23.90
2018-05-04T16:27:54.991Z,23.80
2018-05-04T16:30:22.611Z,23.60
2018-05-04T16:32:51.026Z,22.60
2018-05-04T16:35:18.821Z,22.60
2018-05-04T16:37:46.449Z,22.30
2018-05-04T16:40:14.201Z,21.80
2018-05-04T16:42:41.948Z,21.30
2018-05-04T16:45:09.628Z,20.90
2018-05-04T16:47:43.029Z,20.60
2018-05-04T16:50:10.921Z,20.50
2018-05-04T16:52:38.602Z,20.30
2018-05-04T16:55:06.329Z,20.10
2018-05-04T16:57:33.984Z,19.90
2018-05-04T17:00:01.584Z,19.70
2018-05-04T17:02:29.169Z,19.80
2018-05-04T17:04:56.972Z,19.80
2018-05-04T17:07:24.600Z,19.70
2018-05-04T17:09:52.274Z,19.60
2018-05-04T17:12:19.890Z,19.40
2018-05-04T17:14:47.535Z,19.10
2018-05-04T17:17:15.124Z,19.00
2018-05-04T17:19:43.607Z,18.80
2018-05-04T17:22:11.381Z,18.70
2018-05-04T17:24:39.780Z,18.60
2018-05-04T17:27:08.187Z,18.60
2018-05-04T17:29:35.821Z,18.50
2018-05-04T17:32:03.508Z,18.40
2018-05-04T17:34:31.175Z,18.40
2018-05-04T17:36:58.793Z,18.20
2018-05-04T17:39:26.602Z,18.10
2018-05-04T17:41:54.260Z,18.00
2018-05-04T17:44:21.902Z,17.90
2018-05-04T17:46:49.567Z,17.70
2018-05-04T17:49:17.195Z,17.60
2018-05-04T17:51:44.849Z,17.60
2018-05-04T17:54:13.477Z,17.50
2018-05-04T17:56:41.098Z,17.50
2018-05-04T17:59:08.736Z,17.40
2018-05-04T18:01:37.223Z,17.10
2018-05-04T18:04:04.845Z,17.10
2018-05-04T18:06:32.472Z,17.10
2018-05-04T18:09:00.083Z,17.00
2018-05-04T18:11:27.693Z,16.90
2018-05-04T18:13:55.357Z,16.80
2018-05-04T18:16:22.941Z,16.70
2018-05-04T18:18:50.565Z,16.70
2018-05-04T18:21:18.204Z,16.60
2018-05-04T18:23:46.559Z,16.40
2018-05-04T18:26:14.289Z,16.30
2018-05-04T18:28:42.056Z,16.30
2018-05-04T18:31:09.635Z,16.20
2018-05-04T18:33:37.318Z,16.10
2018-05-04T18:36:06.469Z,16.00
2018-05-04T18:38:34.061Z,16.00
2018-05-04T18:41:01.692Z,16.00
2018-05-04T18:43:29.349Z,15.90
2018-05-04T18:45:56.965Z,15.80
2018-05-04T18:48:25.403Z,15.70
2018-05-04T18:50:53.256Z,15.70
2018-05-04T18:53:21.020Z,15.60
2018-05-04T18:55:48.652Z,15.60
2018-05-04T18:58:16.321Z,15.50
2018-05-04T19:00:43.908Z,15.50
2018-05-04T19:03:17.275Z,15.40
2018-05-04T19:05:44.899Z,15.30
2018-05-04T19:08:13.355Z,15.20
2018-05-04T19:10:40.974Z,15.10
2018-05-04T19:13:08.596Z,15.10
2018-05-04T19:15:37.161Z,15.00
2018-05-04T19:18:04.815Z,14.90
2018-05-04T19:20:32.489Z,14.90
2018-05-04T19:23:00.260Z,14.80
2018-05-04T19:25:27.893Z,14.70
2018-05-04T19:27:55.534Z,14.60
2018-05-04T19:30:23.296Z,14.50
2018-05-04T19:32:50.937Z,14.40
2018-05-04T19:35:18.552Z,14.30
2018-05-04T19:37:46.147Z,14.30
2018-05-04T19:40:14.560Z,14.20
2018-05-04T19:42:42.195Z,14.10
2018-05-04T19:45:09.901Z,14.10
2018-05-04T19:47:37.586Z,14.00
2018-05-04T19:50:05.204Z,13.90
2018-05-04T19:52:32.957Z,13.80
2018-05-04T19:55:00.748Z,13.80
2018-05-04T19:57:28.414Z,13.70
2018-05-04T19:59:55.993Z,13.60
2018-05-04T20:02:25.388Z,13.50
2018-05-04T20:04:53.000Z,13.50
2018-05-04T20:07:20.616Z,13.40
2018-05-04T20:09:48.649Z,13.40
2018-05-04T20:12:16.258Z,13.30
2018-05-04T20:14:44.669Z,13.20
2018-05-04T20:17:15.766Z,13.20
2018-05-04T20:19:43.843Z,13.20
2018-05-04T20:22:12.265Z,13.10
2018-05-04T20:24:41.201Z,13.00
2018-05-04T20:27:09.625Z,13.00
2018-05-04T20:29:37.257Z,13.00
2018-05-04T20:32:05.633Z,12.80
2018-05-04T20:34:34.761Z,12.80
2018-05-04T20:37:02.493Z,12.80
2018-05-04T20:39:30.894Z,12.70
2018-05-04T20:41:58.533Z,12.70
2018-05-04T20:44:26.945Z,12.60
2018-05-04T20:46:54.548Z,12.60
2018-05-04T20:49:22.197Z,12.60
2018-05-04T20:51:49.873Z,12.50
2018-05-04T20:54:17.487Z,12.50
2018-05-04T20:56:45.102Z,12.50
2018-05-04T20:59:13.552Z,12.30
2018-05-04T21:01:41.224Z,12.30
2018-05-04T21:04:08.816Z,12.20
2018-05-04T21:06:37.302Z,12.20
2018-05-04T21:09:05.724Z,12.10
2018-05-04T21:11:33.532Z,12.10
2018-05-04T21:14:01.998Z,12.00
2018-05-04T21:16:29.542Z,12.00
2018-05-04T21:18:57.168Z,12.00
2018-05-04T21:21:24.792Z,12.00
2018-05-04T21:23:53.343Z,11.80
2018-05-04T21:26:20.993Z,11.90
2018-05-04T21:28:48.631Z,11.80
2018-05-04T21:31:16.273Z,11.70
2018-05-04T21:33:43.938Z,11.70
2018-05-04T21:36:11.817Z,11.70
2018-05-04T21:38:42.075Z,11.60
2018-05-04T21:41:26.351Z,11.60
2018-05-04T21:43:54.847Z,11.40
2018-05-04T21:46:23.219Z,11.40
2018-05-04T21:48:51.604Z,11.40
2018-05-04T21:51:19.953Z,11.30
2018-05-04T21:53:47.729Z,11.30
2018-05-04T21:56:17.605Z,11.30
2018-05-04T21:58:46.017Z,11.30
2018-05-04T22:01:14.360Z,11.30
2018-05-04T22:03:41.961Z,11.20
2018-05-04T22:06:10.499Z,11.20
2018-05-04T22:08:38.137Z,11.20
2018-05-04T22:11:10.318Z,11.10
2018-05-04T22:13:38.758Z,11.10
2018-05-04T22:16:07.165Z,11.00
2018-05-04T22:18:34.773Z,11.00
2018-05-04T22:21:03.168Z,11.00
2018-05-04T22:23:32.224Z,10.90
2018-05-04T22:25:59.853Z,10.90
2018-05-04T22:28:28.154Z,10.90
2018-05-04T22:30:55.784Z,10.80
2018-05-04T22:33:23.421Z,10.80
2018-05-04T22:35:51.864Z,10.70
2018-05-04T22:38:19.543Z,10.70
2018-05-04T22:40:47.144Z,10.70
2018-05-04T22:43:14.778Z,10.60
2018-05-04T22:45:43.199Z,10.60
2018-05-04T22:48:10.829Z,10.60
2018-05-04T22:50:39.242Z,10.50
2018-05-04T22:53:06.930Z,10.50
2018-05-04T22:55:37.810Z,10.50
2018-05-04T22:58:06.993Z,10.50
2018-05-04T23:00:35.419Z,10.40
2018-05-04T23:03:03.024Z,10.40
2018-05-04T23:05:31.203Z,10.40
2018-05-04T23:07:59.633Z,10.30
2018-05-04T23:10:27.262Z,10.30
2018-05-04T23:12:55.222Z,10.30
2018-05-04T23:15:23.625Z,10.20
2018-05-04T23:17:51.326Z,10.20
2018-05-04T23:20:18.953Z,10.10
2018-05-04T23:22:46.572Z,10.10
2018-05-04T23:25:14.992Z,10.10
2018-05-04T23:27:42.584Z,10.00
2018-05-04T23:30:11.184Z,10.10
2018-05-04T23:32:39.620Z,10.00
2018-05-04T23:35:07.391Z,10.00
2018-05-04T23:37:35.034Z,10.00
2018-05-04T23:40:02.724Z,10.00
2018-05-04T23:42:30.445Z,9.90
2018-05-04T23:44:58.791Z,9.90
2018-05-04T23:47:27.131Z,9.80
2018-05-04T23:49:54.709Z,9.80
2018-05-04T23:52:22.363Z,9.80
2018-05-04T23:54:50.014Z,9.80
2018-05-04T23:57:18.513Z,9.70
2018-05-04T23:59:46.331Z,9.70
